Terminal Aerodrome Forecast
Issued by NWS

Current Version | Previous Version | Graphics & Text | Print | Product List | Glossary On
Versions: 1 2 3 4 5 6 7 8 9 10 11 12 13 14 15 16 17 18 19 20
630
FTUS41 KPBZ 260520
TAFHLG
TAF
KHLG 260520Z 2606/2706 11005KT P6SM BKN100
     FM261500 15012KT P6SM VCSH OVC060
     FM262100 16010KT 3SM -SHRA BR OVC015=

USA.gov is the U.S. government's official web portal to all federal, state and local government web resources and services.